Time;durP1;ratioP1;P1;durP2;ratioP2;P2;SDS_P1;SDS_P2;PMS_P1;PMS_P2;Temp;Humidity;BMP_temperature;BMP_pressure;BME280_temperature;BME280_humidity;BME280_pressure;Samples;Min_cycle;Max_cycle;Signal;HPM_P1;HPM_P2
2021/04/20 00:00:25;;;;;;;18.93;14.33;;;11.00;56.30;;;;;;5026001;28;20210;-43
2021/04/20 00:02:50;;;;;;;20.37;15.13;;;10.80;56.60;;;;;;5028683;28;20745;-42
2021/04/20 00:05:17;;;;;;;20.50;14.33;;;10.70;57.60;;;;;;5035025;28;20189;-43
2021/04/20 00:07:43;;;;;;;17.87;14.97;;;10.40;57.70;;;;;;5030320;28;20207;-43
2021/04/20 00:10:11;;;;;;;22.03;15.20;;;10.20;58.40;;;;;;5026049;28;20436;-43
2021/04/20 00:12:36;;;;;;;18.93;14.10;;;10.20;58.70;;;;;;5023817;28;20444;-43
2021/04/20 00:15:13;;;;;;;18.77;14.93;;;10.10;58.60;;;;;;5033379;28;20482;-43
2021/04/20 00:17:39;;;;;;;19.47;14.80;;;10.00;58.80;;;;;;5027455;28;20712;-43
2021/04/20 00:20:08;;;;;;;17.37;13.23;;;10.10;58.60;;;;;;5026881;28;20566;-43
2021/04/20 00:22:33;;;;;;;22.07;14.73;;;10.00;58.70;;;;;;5022634;28;20523;-44
2021/04/20 00:24:59;;;;;;;18.83;15.33;;;10.10;58.80;;;;;;5025350;28;20858;-42
2021/04/20 00:27:24;;;;;;;20.80;14.10;;;10.10;58.30;;;;;;5030436;28;20209;-42
2021/04/20 00:29:50;;;;;;;20.00;14.70;;;9.80;59.50;;;;;;5032393;28;20276;-42
2021/04/20 00:32:15;;;;;;;21.80;14.83;;;9.80;60.20;;;;;;5021887;28;20196;-42
2021/04/20 00:34:41;;;;;;;19.50;14.50;;;9.90;60.00;;;;;;5026892;28;20954;-42
2021/04/20 00:37:07;;;;;;;17.07;13.53;;;10.10;58.70;;;;;;5020152;28;20252;-42
2021/04/20 00:39:32;;;;;;;23.90;15.70;;;10.20;58.20;;;;;;5028289;28;20237;-42
2021/04/20 00:42:06;;;;;;;21.50;15.30;;;10.30;57.70;;;;;;5026028;28;20193;-42
2021/04/20 00:44:32;;;;;;;23.70;16.00;;;10.30;57.20;;;;;;5027876;28;20204;-44
2021/04/20 00:47:02;;;;;;;27.80;16.90;;;10.30;57.40;;;;;;5019653;28;20490;-43
2021/04/20 00:49:28;;;;;;;25.53;17.60;;;10.20;58.00;;;;;;5033779;28;20428;-42
2021/04/20 00:51:55;;;;;;;22.37;16.93;;;10.10;58.40;;;;;;5025589;28;20454;-43
2021/04/20 00:54:21;;;;;;;23.53;17.00;;;9.90;60.60;;;;;;5025225;28;20197;-43
2021/04/20 00:56:47;;;;;;;27.90;18.80;;;9.90;60.60;;;;;;5031022;28;20493;-42
2021/04/20 00:59:13;;;;;;;30.63;16.67;;;9.90;60.90;;;;;;5023693;28;20492;-44
2021/04/20 01:01:39;;;;;;;28.10;17.50;;;9.90;61.10;;;;;;5022680;28;20206;-42
2021/04/20 01:04:05;;;;;;;29.03;19.00;;;10.00;59.70;;;;;;5022263;28;20249;-43
2021/04/20 01:06:31;;;;;;;27.77;16.90;;;10.10;59.50;;;;;;5023460;28;20856;-42
2021/04/20 01:08:57;;;;;;;26.80;17.90;;;10.10;59.20;;;;;;5017874;28;20634;-42
2021/04/20 01:11:24;;;;;;;26.77;17.57;;;10.10;59.20;;;;;;5036163;28;20482;-42
2021/04/20 01:13:49;;;;;;;24.20;16.90;;;10.10;59.20;;;;;;5030600;28;20438;-42
2021/04/20 01:16:19;;;;;;;23.83;15.97;;;10.20;59.30;;;;;;5028819;28;20495;-42
2021/04/20 01:18:45;;;;;;;24.93;16.50;;;10.20;58.80;;;;;;5032828;28;20592;-43
2021/04/20 01:21:12;;;;;;;27.27;17.27;;;10.00;58.80;;;;;;5018341;28;20450;-43
2021/04/20 01:23:46;;;;;;;64.23;19.13;;;10.10;58.90;;;;;;5021351;28;20197;-42
2021/04/20 01:26:12;;;;;;;27.97;15.60;;;10.00;58.80;;;;;;5024554;28;20446;-44
2021/04/20 01:28:39;;;;;;;35.83;18.03;;;10.00;58.80;;;;;;5031160;28;20467;-42
2021/04/20 01:31:04;;;;;;;30.97;16.83;;;9.90;59.80;;;;;;5031531;28;21220;-42
2021/04/20 01:33:30;;;;;;;38.83;16.30;;;9.80;60.10;;;;;;5026311;28;20474;-42
2021/04/20 01:35:56;;;;;;;40.07;18.17;;;9.90;60.60;;;;;;5018806;28;20200;-42
2021/04/20 01:38:22;;;;;;;32.93;17.80;;;9.80;60.80;;;;;;5014419;28;20556;-42
2021/04/20 01:40:48;;;;;;;42.80;15.53;;;9.90;61.10;;;;;;5028989;28;20193;-44
2021/04/20 01:43:14;;;;;;;30.50;17.93;;;9.90;60.90;;;;;;5028314;28;20193;-43
2021/04/20 01:45:42;;;;;;;56.20;17.97;;;10.00;59.90;;;;;;5025102;28;20943;-42
2021/04/20 01:48:09;;;;;;;27.07;16.40;;;10.00;59.80;;;;;;5026548;28;20448;-42
2021/04/20 01:50:39;;;;;;;29.67;17.37;;;10.00;59.70;;;;;;5031948;28;20440;-44
2021/04/20 01:53:05;;;;;;;35.13;17.37;;;10.00;59.70;;;;;;5030622;28;20431;-42
2021/04/20 01:55:30;;;;;;;22.43;16.97;;;10.00;59.70;;;;;;5029857;28;20425;-42
2021/04/20 01:57:56;;;;;;;54.63;17.47;;;10.00;59.70;;;;;;5014802;28;20198;-42
2021/04/20 02:00:23;;;;;;;21.47;15.53;;;9.90;60.90;;;;;;5030179;28;20193;-43
2021/04/20 02:02:48;;;;;;;27.83;16.67;;;9.80;61.20;;;;;;5030142;28;20438;-42
2021/04/20 02:05:15;;;;;;;26.40;16.90;;;9.80;61.20;;;;;;5031413;28;20516;-42
2021/04/20 02:07:42;;;;;;;32.67;17.53;;;9.80;61.40;;;;;;5022228;28;20193;-43
2021/04/20 02:10:12;;;;;;;57.07;17.10;;;9.90;61.60;;;;;;5025071;28;20433;-42
2021/04/20 02:12:41;;;;;;;45.87;16.53;;;9.70;61.10;;;;;;5027749;28;20436;-42
2021/04/20 02:15:10;;;;;;;37.23;16.50;;;9.50;62.20;;;;;;5019715;28;20935;-42
2021/04/20 02:17:37;;;;;;;55.73;18.70;;;9.50;63.60;;;;;;5018682;28;20498;-42
2021/04/20 02:20:07;;;;;;;31.93;18.57;;;9.60;62.80;;;;;;5026561;28;20498;-43
2021/04/20 02:22:40;;;;;;;42.03;17.70;;;9.60;62.60;;;;;;5029367;28;20526;-42
2021/04/20 02:25:09;;;;;;;28.90;17.23;;;9.70;62.50;;;;;;5030776;28;20436;-42
2021/04/20 02:27:35;;;;;;;29.83;17.20;;;9.80;62.60;;;;;;5025209;28;20490;-42
2021/04/20 02:30:04;;;;;;;37.90;19.10;;;9.80;62.40;;;;;;5023607;28;20427;-42
2021/04/20 02:32:32;;;;;;;32.47;18.10;;;9.90;62.30;;;;;;5026096;28;20487;-42
2021/04/20 02:35:02;;;;;;;34.93;19.00;;;9.90;62.10;;;;;;5025091;28;20432;-42
2021/04/20 02:37:29;;;;;;;35.07;17.43;;;9.80;62.10;;;;;;5015168;28;20506;-42
2021/04/20 02:39:54;;;;;;;45.70;17.20;;;9.70;62.20;;;;;;5025748;28;20567;-43
2021/04/20 02:42:21;;;;;;;49.13;18.60;;;9.60;62.80;;;;;;5027069;28;20522;-42
2021/04/20 02:44:47;;;;;;;29.60;17.23;;;9.70;62.70;;;;;;5019580;28;20221;-42
2021/04/20 02:47:13;;;;;;;40.37;19.57;;;9.70;62.70;;;;;;5023287;28;20432;-42
2021/04/20 02:49:38;;;;;;;95.83;20.07;;;9.80;62.60;;;;;;5021993;28;20463;-43
2021/04/20 02:52:05;;;;;;;47.00;18.67;;;9.80;62.30;;;;;;5019990;28;20475;-42
2021/04/20 02:54:31;;;;;;;60.83;17.87;;;9.70;62.10;;;;;;5032216;28;20189;-44
2021/04/20 02:57:02;;;;;;;39.40;21.17;;;9.70;62.70;;;;;;5024977;28;20442;-42
2021/04/20 02:59:29;;;;;;;36.40;20.93;;;9.80;62.90;;;;;;5024245;28;20866;-43
2021/04/20 03:01:57;;;;;;;44.17;19.43;;;9.80;62.90;;;;;;5029945;28;20436;-42
2021/04/20 03:04:23;;;;;;;41.67;19.03;;;9.90;62.90;;;;;;5025301;28;20491;-42
2021/04/20 03:06:49;;;;;;;26.40;18.30;;;10.00;61.60;;;;;;5029212;28;20825;-42
2021/04/20 03:09:15;;;;;;;22.23;17.00;;;10.00;61.40;;;;;;5024666;28;20205;-43
2021/04/20 03:11:53;;;;;;;23.80;17.00;;;10.00;61.30;;;;;;5027074;28;20978;-42
2021/04/20 03:14:19;;;;;;;31.37;18.23;;;10.10;61.00;;;;;;5029027;28;20428;-43
2021/04/20 03:16:45;;;;;;;34.30;17.20;;;10.00;60.20;;;;;;5025594;28;20433;-43
2021/04/20 03:19:10;;;;;;;42.87;17.77;;;9.90;61.30;;;;;;5026196;28;20518;-42
2021/04/20 03:21:37;;;;;;;39.93;17.70;;;9.90;62.00;;;;;;5023213;28;20202;-43
2021/04/20 03:24:03;;;;;;;27.90;18.70;;;9.90;62.00;;;;;;5028567;28;20223;-43
2021/04/20 03:26:39;;;;;;;26.07;18.83;;;10.00;61.00;;;;;;5023283;28;20428;-42
2021/04/20 03:29:09;;;;;;;34.53;17.00;;;10.00;60.90;;;;;;5025922;28;20462;-43
2021/04/20 03:31:39;;;;;;;31.03;17.40;;;10.10;60.90;;;;;;5021114;28;20435;-42
2021/04/20 03:34:13;;;;;;;54.20;17.73;;;10.10;61.20;;;;;;5033191;28;20947;-42
2021/04/20 03:36:45;;;;;;;39.77;16.60;;;9.60;61.60;;;;;;5032137;28;20435;-43
2021/04/20 03:39:17;;;;;;;45.17;16.60;;;9.40;63.50;;;;;;5024580;28;20491;-42
2021/04/20 03:41:47;;;;;;;28.13;16.63;;;9.40;64.40;;;;;;5031940;28;20428;-43
2021/04/20 03:44:17;;;;;;;21.87;16.00;;;9.20;64.30;;;;;;5026552;28;20441;-42
2021/04/20 03:46:46;;;;;;;31.23;18.60;;;9.20;65.00;;;;;;5030027;28;20470;-41
2021/04/20 03:49:21;;;;;;;57.83;18.93;;;9.30;65.00;;;;;;5027371;28;20456;-42
2021/04/20 03:51:48;;;;;;;32.93;17.87;;;9.50;64.70;;;;;;5026615;28;20432;-43
2021/04/20 03:54:16;;;;;;;35.63;17.90;;;9.60;64.20;;;;;;5034787;28;20443;-42
2021/04/20 03:56:46;;;;;;;25.00;17.33;;;9.70;63.80;;;;;;5031506;28;20530;-44
2021/04/20 03:59:14;;;;;;;33.83;18.50;;;9.80;63.50;;;;;;5026141;28;20583;-44
2021/04/20 04:01:43;;;;;;;61.13;18.00;;;9.80;63.50;;;;;;5028402;28;20424;-42
2021/04/20 04:04:12;;;;;;;103.27;17.87;;;9.80;63.10;;;;;;5026646;28;20443;-43
2021/04/20 04:06:40;;;;;;;69.07;18.07;;;9.80;62.80;;;;;;5028750;28;20431;-43
2021/04/20 04:09:08;;;;;;;30.03;17.80;;;9.60;62.90;;;;;;5030314;28;20435;-43
2021/04/20 04:11:36;;;;;;;37.47;16.77;;;9.50;63.50;;;;;;5026617;28;20458;-43
2021/04/20 04:14:03;;;;;;;31.90;17.23;;;9.50;63.90;;;;;;5027015;28;20797;-43
2021/04/20 04:16:31;;;;;;;49.03;19.03;;;9.60;63.70;;;;;;5027783;28;20787;-43
2021/04/20 04:18:59;;;;;;;33.23;16.60;;;9.50;63.40;;;;;;5020615;28;20496;-46
2021/04/20 04:21:44;;;;;;;64.37;17.13;;;9.50;63.80;;;;;;5029995;28;20463;-44
2021/04/20 04:24:11;;;;;;;21.03;15.33;;;9.40;63.80;;;;;;5030542;28;20444;-42
2021/04/20 04:26:41;;;;;;;85.93;17.37;;;9.30;64.50;;;;;;5031182;28;20425;-46
2021/04/20 04:29:10;;;;;;;39.40;16.87;;;9.20;64.50;;;;;;5026159;28;20444;-43
2021/04/20 04:31:41;;;;;;;79.03;17.47;;;9.20;64.60;;;;;;5031767;28;20437;-45
2021/04/20 04:34:08;;;;;;;110.70;17.93;;;9.20;64.30;;;;;;5025745;28;20454;-43
2021/04/20 04:36:34;;;;;;;56.97;16.80;;;9.10;64.70;;;;;;5019393;28;20523;-45
2021/04/20 04:39:00;;;;;;;39.73;16.30;;;9.00;65.00;;;;;;5027159;28;20479;-42
2021/04/20 04:41:27;;;;;;;27.20;16.67;;;9.10;65.30;;;;;;5027749;28;20487;-42
2021/04/20 04:43:53;;;;;;;36.83;16.17;;;9.30;65.10;;;;;;5031368;28;20273;-42
2021/04/20 04:46:21;;;;;;;40.57;16.77;;;9.30;64.70;;;;;;5032161;28;20516;-42
2021/04/20 04:48:47;;;;;;;67.67;18.27;;;9.40;64.50;;;;;;5027402;28;20199;-42
2021/04/20 04:51:15;;;;;;;32.13;17.57;;;9.50;64.50;;;;;;5026880;28;20494;-44
2021/04/20 04:53:41;;;;;;;33.13;17.60;;;9.60;64.20;;;;;;5027359;28;20429;-44
2021/04/20 04:56:08;;;;;;;36.20;16.50;;;9.70;64.10;;;;;;5016206;28;20953;-43
2021/04/20 04:58:36;;;;;;;29.07;16.67;;;9.70;63.90;;;;;;5020641;28;20484;-42
2021/04/20 05:01:03;;;;;;;22.37;16.93;;;9.80;63.80;;;;;;5021856;28;20500;-45
2021/04/20 05:03:28;;;;;;;31.27;16.70;;;9.80;63.40;;;;;;5029069;28;20444;-42
2021/04/20 05:05:57;;;;;;;23.33;15.13;;;9.90;63.30;;;;;;5026488;28;20519;-44
2021/04/20 05:08:23;;;;;;;63.50;18.70;;;9.90;63.20;;;;;;5032873;28;20213;-44
2021/04/20 05:10:50;;;;;;;25.30;15.43;;;9.90;63.10;;;;;;5024259;28;20523;-42
2021/04/20 05:13:17;;;;;;;115.50;20.30;;;9.90;63.50;;;;;;5019569;28;20993;-41
2021/04/20 05:15:43;;;;;;;25.67;14.87;;;9.80;64.60;;;;;;5022422;28;20447;-41
2021/04/20 05:18:13;;;;;;;29.03;16.67;;;10.00;64.50;;;;;;5031465;28;20468;-41
2021/04/20 05:20:43;;;;;;;18.50;14.67;;;10.10;62.80;;;;;;5026376;28;20715;-42
2021/04/20 05:23:09;;;;;;;18.07;14.67;;;10.30;63.30;;;;;;5033315;28;20444;-42
2021/04/20 05:25:35;;;;;;;18.07;14.50;;;10.70;63.20;;;;;;5032486;28;20662;-42
2021/04/20 05:28:01;;;;;;;20.73;15.20;;;11.00;63.50;;;;;;5028475;28;20443;-42
2021/04/20 05:30:27;;;;;;;44.23;14.40;;;11.30;61.20;;;;;;5026980;28;20436;-42
2021/04/20 05:32:53;;;;;;;17.40;13.40;;;11.50;59.90;;;;;;5026942;28;20259;-42
2021/04/20 05:35:21;;;;;;;16.37;12.53;;;11.50;58.00;;;;;;5024083;28;20444;-42
2021/04/20 05:37:47;;;;;;;16.23;13.50;;;11.30;58.20;;;;;;5022804;28;20935;-42
2021/04/20 05:40:26;;;;;;;24.40;16.00;;;11.20;58.40;;;;;;5020901;28;20545;-41
2021/04/20 05:42:53;;;;;;;17.53;14.33;;;11.50;58.80;;;;;;5023916;28;20448;-42
2021/04/20 05:45:19;;;;;;;19.00;13.63;;;11.70;58.60;;;;;;5029544;28;20432;-42
2021/04/20 05:47:47;;;;;;;19.07;15.80;;;11.80;58.20;;;;;;5024602;28;20435;-41
2021/04/20 05:50:24;;;;;;;64.53;16.73;;;11.90;58.00;;;;;;5020215;28;20457;-41
2021/04/20 05:52:50;;;;;;;32.93;14.83;;;12.10;57.60;;;;;;5017921;28;20448;-41
2021/04/20 05:55:16;;;;;;;23.03;15.27;;;12.20;57.30;;;;;;5020164;28;20448;-42
2021/04/20 05:57:46;;;;;;;41.93;16.63;;;12.30;57.10;;;;;;5019551;28;20446;-42
2021/04/20 06:00:13;;;;;;;19.60;15.00;;;12.40;57.00;;;;;;5026792;28;20955;-43
2021/04/20 06:02:40;;;;;;;33.17;15.67;;;12.40;56.90;;;;;;5019839;28;20925;-42
2021/04/20 06:05:20;;;;;;;20.17;14.20;;;12.50;56.90;;;;;;5025503;28;20916;-42
2021/04/20 06:07:49;;;;;;;22.80;15.27;;;12.60;56.60;;;;;;5026331;28;21006;-42
2021/04/20 06:10:16;;;;;;;24.80;15.40;;;12.60;56.30;;;;;;5026033;28;20428;-42
2021/04/20 06:12:43;;;;;;;22.43;15.80;;;12.60;56.40;;;;;;5025493;28;20478;-42
2021/04/20 06:15:10;;;;;;;20.87;15.23;;;12.60;56.30;;;;;;5024844;28;20436;-42
2021/04/20 06:17:38;;;;;;;57.40;17.87;;;12.70;56.20;;;;;;5028577;28;20809;-42
2021/04/20 06:20:06;;;;;;;20.40;15.73;;;12.70;56.20;;;;;;5028316;28;20483;-42
2021/04/20 06:22:34;;;;;;;31.93;15.10;;;12.60;55.90;;;;;;5016286;28;20528;-42
2021/04/20 06:24:59;;;;;;;20.20;16.67;;;12.30;55.90;;;;;;5016032;28;20448;-42
2021/04/20 06:27:26;;;;;;;20.53;15.80;;;12.30;56.50;;;;;;5020383;28;20509;-42
2021/04/20 06:29:52;;;;;;;29.50;18.07;;;12.30;56.80;;;;;;5029204;28;20189;-43
2021/04/20 06:32:18;;;;;;;31.67;18.60;;;12.40;56.60;;;;;;5024650;28;21041;-42
2021/04/20 06:34:44;;;;;;;26.60;18.07;;;12.40;56.50;;;;;;5029366;28;20197;-42
2021/04/20 06:37:10;;;;;;;21.50;18.23;;;12.50;56.50;;;;;;5024854;28;20441;-43
2021/04/20 06:39:38;;;;;;;26.70;18.70;;;12.30;56.50;;;;;;5024885;28;20490;-43
2021/04/20 06:42:08;;;;;;;22.70;16.13;;;12.30;57.30;;;;;;5031491;28;20506;-44
2021/04/20 06:44:45;;;;;;;23.20;18.30;;;12.40;57.30;;;;;;5032175;28;20436;-43
2021/04/20 06:47:19;;;;;;;25.30;19.07;;;12.50;57.20;;;;;;5031315;28;20427;-43
2021/04/20 06:49:51;;;;;;;21.43;17.37;;;12.70;56.60;;;;;;5030251;28;20523;-43
2021/04/20 06:52:28;;;;;;;30.30;21.73;;;12.80;56.40;;;;;;5031245;28;20460;-41
2021/04/20 06:55:09;;;;;;;28.97;20.90;;;12.90;56.50;;;;;;5032134;28;20432;-41
2021/04/20 06:58:01;;;;;;;29.80;22.00;;;12.90;56.50;;;;;;5030917;28;20440;-44
2021/04/20 07:00:29;;;;;;;34.53;20.83;;;13.00;56.60;;;;;;5015803;28;20444;-42
2021/04/20 07:03:02;;;;;;;30.70;21.93;;;13.00;56.60;;;;;;5031389;28;20771;-43
2021/04/20 07:05:41;;;;;;;28.70;20.87;;;13.10;56.60;;;;;;5031850;28;20428;-41
2021/04/20 07:08:27;;;;;;;26.87;21.10;;;13.20;56.50;;;;;;5030323;28;20935;-43
2021/04/20 07:10:54;;;;;;;35.10;22.30;;;13.10;56.30;;;;;;5031483;28;20440;-41
2021/04/20 07:13:26;;;;;;;24.57;19.07;;;12.80;56.10;;;;;;5032018;28;20444;-41
2021/04/20 07:15:57;;;;;;;26.00;19.73;;;12.50;58.50;;;;;;5029737;28;20519;-41
2021/04/20 07:18:25;;;;;;;28.70;21.40;;;12.80;59.00;;;;;;5031323;28;20964;-41
2021/04/20 07:20:58;;;;;;;31.90;23.00;;;13.00;58.20;;;;;;5031089;28;20424;-42
2021/04/20 07:23:45;;;;;;;41.27;25.57;;;13.30;57.80;;;;;;5031786;28;20436;-41
2021/04/20 07:26:48;;;;;;;33.47;23.10;;;13.60;57.50;;;;;;5030733;28;20477;-42
2021/04/20 07:29:43;;;;;;;33.53;22.90;;;13.90;57.30;;;;;;5033823;28;20424;-41
2021/04/20 07:32:15;;;;;;;27.83;21.73;;;14.10;57.40;;;;;;5000155;28;20509;-41
2021/04/20 07:34:43;;;;;;;27.80;22.37;;;14.40;56.80;;;;;;5031490;28;20432;-42
2021/04/20 07:37:33;;;;;;;29.57;22.70;;;14.60;55.90;;;;;;5030754;28;20420;-41
2021/04/20 07:40:01;;;;;;;31.87;24.40;;;14.90;55.40;;;;;;5031305;28;20487;-41
2021/04/20 07:42:35;;;;;;;33.93;26.70;;;15.00;54.50;;;;;;5029242;28;20511;-44
2021/04/20 07:45:15;;;;;;;27.47;21.93;;;15.20;54.10;;;;;;5031787;28;20424;-43
2021/04/20 07:47:47;;;;;;;26.87;22.60;;;15.30;53.50;;;;;;5030367;28;20440;-43
2021/04/20 07:50:18;;;;;;;30.23;23.53;;;15.50;53.10;;;;;;5031336;28;20424;-42
2021/04/20 07:53:19;;;;;;;27.77;22.53;;;15.50;53.10;;;;;;5030688;28;20424;-41
2021/04/20 07:55:54;;;;;;;25.40;21.07;;;15.60;53.00;;;;;;5017962;28;20440;-43
2021/04/20 07:58:21;;;;;;;25.47;19.10;;;15.70;52.70;;;;;;5030867;28;20427;-42
2021/04/20 08:00:58;;;;;;;26.20;20.93;;;15.80;52.60;;;;;;5025712;28;20794;-43
2021/04/20 08:03:33;;;;;;;25.87;21.63;;;15.70;52.20;;;;;;5031327;28;20915;-43
2021/04/20 08:06:02;;;;;;;25.60;20.37;;;15.90;52.80;;;;;;5030645;28;20438;-44
2021/04/20 08:08:33;;;;;;;19.90;17.80;;;16.00;53.00;;;;;;5029285;28;20515;-41
2021/04/20 08:11:03;;;;;;;25.07;20.53;;;16.00;52.80;;;;;;5030746;28;20906;-43
2021/04/20 08:13:49;;;;;;;24.17;20.00;;;16.20;52.70;;;;;;5031157;28;20466;-42
2021/04/20 08:16:21;;;;;;;24.00;20.27;;;16.40;52.90;;;;;;5029931;28;20439;-43
2021/04/20 08:18:58;;;;;;;24.27;19.50;;;16.60;52.30;;;;;;5031151;28;20500;-43
2021/04/20 08:21:25;;;;;;;22.90;19.07;;;16.70;52.00;;;;;;5034401;28;20899;-42
2021/04/20 08:23:53;;;;;;;27.53;19.67;;;16.80;51.70;;;;;;5035086;28;20424;-42
2021/04/20 08:26:35;;;;;;;22.53;19.50;;;16.90;52.40;;;;;;5033977;28;20428;-45
2021/04/20 08:29:08;;;;;;;24.30;19.60;;;17.20;52.80;;;;;;5034633;28;20474;-44
2021/04/20 08:31:49;;;;;;;23.57;20.07;;;17.30;51.20;;;;;;5034125;28;20439;-43
2021/04/20 08:34:40;;;;;;;24.90;19.83;;;17.50;50.70;;;;;;5034747;28;21115;-43
2021/04/20 08:37:21;;;;;;;22.27;19.07;;;17.80;50.20;;;;;;5032118;28;20855;-43
2021/04/20 08:39:54;;;;;;;23.90;19.00;;;17.90;51.50;;;;;;5034552;28;20994;-41
2021/04/20 08:42:26;;;;;;;23.83;20.03;;;17.90;50.50;;;;;;5034151;28;20438;-41
2021/04/20 08:45:07;;;;;;;24.33;19.50;;;17.90;49.90;;;;;;5034541;28;20428;-43
2021/04/20 08:47:49;;;;;;;25.60;22.07;;;17.80;50.30;;;;;;5028588;28;20939;-43
2021/04/20 08:50:21;;;;;;;20.23;18.03;;;18.00;49.90;;;;;;5021881;28;20507;-42
2021/04/20 08:53:14;;;;;;;21.23;18.50;;;18.20;50.10;;;;;;5024488;28;20856;-43
2021/04/20 08:55:47;;;;;;;17.57;15.67;;;18.40;50.80;;;;;;5034269;28;20448;-44
2021/04/20 08:59:06;;;;;;;24.20;18.37;;;18.60;47.80;;;;;;5030547;28;20440;-44
2021/04/20 09:02:06;;;;;;;22.13;17.20;;;18.80;49.40;;;;;;4962009;28;20535;-44
2021/04/20 09:04:51;;;;;;;21.00;18.77;;;19.00;48.90;;;;;;4965483;28;20962;-43
2021/04/20 09:07:32;;;;;;;20.10;17.07;;;19.10;47.10;;;;;;5009853;28;20445;-44
2021/04/20 09:10:10;;;;;;;21.90;16.70;;;19.20;47.10;;;;;;5019680;28;20449;-44
2021/04/20 09:12:37;;;;;;;20.10;16.70;;;19.40;45.80;;;;;;5019998;28;20767;-45
2021/04/20 09:15:04;;;;;;;21.47;17.57;;;19.50;45.00;;;;;;5027675;28;20499;-43
2021/04/20 09:17:38;;;;;;;20.37;18.17;;;19.70;45.70;;;;;;5024472;28;20444;-47
2021/04/20 09:20:53;;;;;;;21.67;17.80;;;19.80;45.80;;;;;;5025138;28;21273;-44
2021/04/20 09:23:45;;;;;;;24.10;19.30;;;19.90;44.50;;;;;;4989658;28;20499;-43
2021/04/20 09:26:26;;;;;;;19.30;17.23;;;20.00;45.10;;;;;;5027350;28;21324;-43
2021/04/20 09:29:15;;;;;;;20.67;18.47;;;20.20;46.00;;;;;;5012542;28;20478;-44
2021/04/20 09:31:51;;;;;;;22.80;17.00;;;20.30;46.70;;;;;;5014968;28;20455;-44
2021/04/20 09:34:17;;;;;;;17.53;15.63;;;20.40;44.30;;;;;;5027681;28;20435;-45
2021/04/20 09:36:43;;;;;;;19.60;17.50;;;20.60;45.20;;;;;;5029466;28;20440;-45
2021/04/20 09:39:10;;;;;;;18.83;16.10;;;20.70;44.70;;;;;;5028876;28;20684;-45
2021/04/20 09:41:44;;;;;;;19.20;17.20;;;20.80;44.70;;;;;;5020983;28;20667;-44
2021/04/20 09:44:32;;;;;;;21.97;18.07;;;20.90;43.60;;;;;;5032142;28;20450;-44
2021/04/20 09:47:18;;;;;;;17.27;14.67;;;21.00;44.40;;;;;;5018584;28;20476;-44
2021/04/20 09:49:58;;;;;;;19.07;15.27;;;21.30;44.10;;;;;;5022255;28;20472;-43
2021/04/20 09:52:38;;;;;;;15.93;14.17;;;21.50;42.40;;;;;;5019260;28;20568;-44
2021/04/20 09:55:07;;;;;;;16.50;14.80;;;21.60;41.70;;;;;;5024567;28;21003;-44
2021/04/20 09:57:36;;;;;;;18.97;15.70;;;21.70;41.90;;;;;;5028513;28;20440;-43
2021/04/20 10:00:09;;;;;;;13.70;12.40;;;21.80;41.70;;;;;;5031626;28;20880;-42
2021/04/20 10:02:42;;;;;;;13.67;12.30;;;21.90;39.50;;;;;;5032050;28;20489;-43
2021/04/20 10:05:19;;;;;;;15.00;13.30;;;22.10;39.70;;;;;;5039549;28;20440;-43
2021/04/20 10:07:56;;;;;;;16.80;14.47;;;22.20;39.50;;;;;;5037400;28;20486;-46
2021/04/20 10:10:52;;;;;;;13.80;12.37;;;22.20;38.80;;;;;;5044204;28;20462;-43
2021/04/20 10:13:41;;;;;;;13.53;12.20;;;22.40;41.30;;;;;;5032169;28;20456;-43
2021/04/20 10:16:18;;;;;;;12.10;10.47;;;22.70;41.40;;;;;;5031370;28;20846;-43
2021/04/20 10:18:56;;;;;;;13.87;12.37;;;22.90;38.10;;;;;;5042391;28;20518;-44
2021/04/20 10:21:51;;;;;;;13.07;11.67;;;23.00;37.10;;;;;;5042700;28;20428;-44
2021/04/20 10:24:22;;;;;;;13.93;11.57;;;23.00;37.00;;;;;;5029280;28;20865;-44
2021/04/20 10:27:11;;;;;;;13.53;11.57;;;22.90;37.80;;;;;;5026438;28;20436;-43
2021/04/20 10:30:02;;;;;;;12.57;11.27;;;23.20;40.10;;;;;;5041431;28;20457;-43
2021/04/20 10:32:30;;;;;;;12.87;11.67;;;23.30;39.00;;;;;;5036388;28;20896;-43
2021/04/20 10:34:58;;;;;;;12.80;11.50;;;23.50;38.30;;;;;;5035060;28;20490;-44
2021/04/20 10:37:35;;;;;;;12.50;11.20;;;23.70;37.80;;;;;;5041607;28;20978;-43
2021/04/20 10:40:05;;;;;;;16.53;11.80;;;23.90;38.20;;;;;;5038841;28;20489;-43
2021/04/20 10:42:32;;;;;;;12.57;11.27;;;24.00;38.40;;;;;;5033180;28;20458;-47
2021/04/20 10:44:58;;;;;;;13.10;10.37;;;24.10;36.50;;;;;;5026728;28;20444;-46
2021/04/20 10:47:25;;;;;;;11.60;8.57;;;24.30;36.40;;;;;;5026964;28;20429;-43
2021/04/20 10:49:52;;;;;;;12.77;11.40;;;24.40;33.20;;;;;;5019809;28;20444;-45
2021/04/20 10:52:19;;;;;;;11.30;10.10;;;24.30;36.10;;;;;;5023656;28;20479;-46
2021/04/20 10:54:46;;;;;;;13.93;12.53;;;24.50;36.40;;;;;;5021741;28;21154;-45
2021/04/20 10:57:12;;;;;;;13.30;11.90;;;24.60;34.60;;;;;;5028915;28;20555;-46
2021/04/20 10:59:40;;;;;;;13.40;12.10;;;24.80;35.40;;;;;;5040361;28;20477;-45
2021/04/20 11:02:18;;;;;;;11.50;10.40;;;24.80;33.50;;;;;;5036326;28;20827;-46
2021/04/20 11:04:45;;;;;;;12.40;11.10;;;24.90;33.60;;;;;;5035489;28;20996;-47
2021/04/20 11:07:31;;;;;;;13.30;12.00;;;25.00;33.90;;;;;;5039443;28;20427;-45
2021/04/20 11:10:05;;;;;;;12.60;10.37;;;25.10;33.20;;;;;;5041642;28;20439;-46
2021/04/20 11:12:31;;;;;;;11.27;10.23;;;25.20;33.80;;;;;;5043821;28;20488;-44
2021/04/20 11:14:58;;;;;;;12.07;10.97;;;25.30;33.70;;;;;;5037221;28;20442;-45
2021/04/20 11:17:29;;;;;;;10.57;9.47;;;25.50;33.60;;;;;;5046237;28;20813;-45
2021/04/20 11:20:14;;;;;;;10.93;9.87;;;25.80;32.40;;;;;;5030154;28;20910;-44
2021/04/20 11:23:06;;;;;;;11.10;9.67;;;25.80;31.80;;;;;;5036076;28;20444;-45
2021/04/20 11:25:50;;;;;;;11.20;10.10;;;25.90;32.00;;;;;;5037166;28;20825;-45
2021/04/20 11:28:21;;;;;;;10.30;9.30;;;25.80;30.00;;;;;;5032362;28;20435;-44
2021/04/20 11:30:58;;;;;;;10.83;9.83;;;25.60;30.80;;;;;;5041478;28;20502;-44
2021/04/20 11:33:36;;;;;;;9.97;9.00;;;25.50;30.80;;;;;;5032917;28;21914;-46
2021/04/20 11:36:08;;;;;;;11.83;10.63;;;25.60;31.80;;;;;;5036438;28;20450;-46
2021/04/20 11:39:11;;;;;;;11.70;10.37;;;25.50;30.90;;;;;;5040669;28;20473;-45
2021/04/20 11:41:42;;;;;;;10.20;9.20;;;25.40;30.80;;;;;;5020840;28;20881;-45
2021/04/20 11:44:09;;;;;;;10.87;9.27;;;24.80;30.10;;;;;;5042931;28;20443;-44
2021/04/20 11:46:37;;;;;;;9.87;8.47;;;24.40;31.90;;;;;;5039137;28;20439;-43
2021/04/20 11:49:15;;;;;;;10.20;9.20;;;24.60;30.90;;;;;;5037023;28;20443;-46
2021/04/20 11:51:42;;;;;;;11.00;9.90;;;24.80;30.40;;;;;;5037081;28;20439;-44
2021/04/20 11:54:10;;;;;;;10.37;8.93;;;24.90;30.00;;;;;;5039745;28;20443;-45
2021/04/20 11:56:38;;;;;;;9.63;8.73;;;24.90;31.50;;;;;;5038522;28;20926;-46
2021/04/20 11:59:03;;;;;;;9.40;8.40;;;25.00;31.60;;;;;;5036623;28;20552;-46
2021/04/20 12:01:31;;;;;;;6.50;5.90;;;25.40;32.20;;;;;;5037471;28;20935;-43
2021/04/20 12:04:00;;;;;;;9.23;7.40;;;25.70;32.40;;;;;;5027578;28;20768;-45
2021/04/20 12:06:50;;;;;;;9.90;8.90;;;25.90;30.80;;;;;;5042780;28;20470;-46
2021/04/20 12:09:20;;;;;;;9.00;7.93;;;26.00;29.60;;;;;;5039602;28;20979;-43
2021/04/20 12:11:47;;;;;;;9.93;8.50;;;25.90;29.90;;;;;;5032140;28;20434;-45
2021/04/20 12:14:17;;;;;;;7.37;6.67;;;25.90;30.00;;;;;;5036732;28;20447;-46
2021/04/20 12:16:45;;;;;;;9.50;8.30;;;26.00;29.90;;;;;;5035670;28;21634;-46
2021/04/20 12:19:15;;;;;;;8.80;8.00;;;26.20;29.30;;;;;;5033935;28;20489;-44
2021/04/20 12:21:45;;;;;;;8.73;7.93;;;26.20;29.20;;;;;;5045047;28;20419;-45
2021/04/20 12:24:16;;;;;;;9.50;8.70;;;26.20;29.50;;;;;;5042119;28;20431;-44
2021/04/20 12:26:44;;;;;;;8.50;7.70;;;26.20;29.80;;;;;;5040703;28;20443;-46
2021/04/20 12:29:14;;;;;;;8.10;7.40;;;26.30;29.80;;;;;;5043003;28;20443;-47
2021/04/20 12:31:40;;;;;;;9.23;8.33;;;26.40;29.50;;;;;;5047703;28;20407;-45
2021/04/20 12:34:07;;;;;;;8.70;7.90;;;25.90;28.40;;;;;;5042526;28;20788;-48
2021/04/20 12:36:38;;;;;;;7.43;6.73;;;25.50;29.80;;;;;;5045301;28;20431;-46
2021/04/20 12:39:10;;;;;;;8.93;7.63;;;25.90;29.50;;;;;;5044296;28;20510;-44
2021/04/20 12:41:39;;;;;;;6.97;6.37;;;26.10;28.70;;;;;;5042829;28;20435;-45
2021/04/20 12:44:08;;;;;;;9.10;8.30;;;26.30;28.30;;;;;;5028177;28;20450;-46
2021/04/20 12:46:36;;;;;;;8.00;7.13;;;26.20;29.10;;;;;;5036433;28;20443;-45
2021/04/20 12:49:05;;;;;;;9.50;8.60;;;26.50;29.00;;;;;;5043592;28;20450;-44
2021/04/20 12:51:34;;;;;;;10.23;9.23;;;26.00;30.00;;;;;;5041655;28;20446;-45